Aschaffenburg, Germany

10:36 AM CET on February 10, 2016 (GMT +0100)
Wernstrasse | | Change Station
CLOSE
Current Station
Personal Weather Station
Location: Großostheim, BAYERN
Elevation: 433 ft
Nearby Weather Stations

Elev 433 ft 49.92 °N, 9.08 °E | Updated 34 seconds ago

Mostly Cloudy
Mostly Cloudy
39.7 °F
Feels Like 37 °F
N
4.5
Wind Variable Wind from WSW
Gusts 7.4 mph

Today
High -- | Low -- °F
--% Chance of Precip.
Yesterday
High -- | Low -- °F
Precip. -- in
Pressure 29.39 in
Visibility 6.2 miles
Clouds Scattered Clouds 2000 ft
Mostly Cloudy 3800 ft
Windchill 37 °F
Dew Point 32 °F
Humidity 74%
Rainfall 0.00 in
Snow Depth Not available.
7:44 AM 5:32 PM
Waxing Crescent, 4% visible
METAR EDFE 100920Z 21011KT 9999 SCT020 BKN038 04/01 Q0995
Pressure 29.39 in
Visibility 6.2 miles
Clouds Scattered Clouds 2000 ft
Mostly Cloudy 3800 ft
Windchill 37 °F
Dew Point 32 °F
Humidity 74%
Rainfall 0.00 in
Snow Depth Not available.
7:44 AM 5:32 PM
Waxing Crescent, 4% visible
METAR EDFE 100920Z 21011KT 9999 SCT020 BKN038 04/01 Q0995

10-Day Weather Forecast

Almanac

Astronomy

Feb. 10, 2016 Rise Set
Actual Time
Civil Twilight
Nautical Twilight
Astronomical Twilight
Moon
Length of Visible Light
Length of Day
Tomorrow will be .
, % of the Moon is Illuminated

Today's Extremes

Country Highs Country Lows

Community

WunderPhotos

Upload Photos

1,891,826 photos uploaded!

WunderBlog® & News

Nearby

Air Quality

  Air Quality AQ Index Pollutant
Not available.

Snow Depth

Station Depth Elevation

Earthquake Activity

City Distance Mag. Time & Date
Minimum magnitude displayed is 2.5.

Coastal Water Temperatures

Place Temperature

Stations

Nearby Weather Stations

Station Location Temp. Windchill Dew Point Humidity Wind Precip. Elev Updated Type